sensor_id;sensor_type;location;lat;lon;timestamp;P1;durP1;ratioP1;P2;durP2;ratioP2
64235;SDS011;50564;47.402;9.740;2024-01-15T00:03:12;35.33;;;21.83;;
64235;SDS011;50564;47.402;9.740;2024-01-15T00:08:13;39.85;;;23.40;;
64235;SDS011;50564;47.402;9.740;2024-01-15T00:13:14;37.00;;;22.98;;
64235;SDS011;50564;47.402;9.740;2024-01-15T00:18:15;38.35;;;23.10;;
64235;SDS011;50564;47.402;9.740;2024-01-15T00:23:15;34.53;;;22.05;;
64235;SDS011;50564;47.402;9.740;2024-01-15T00:28:16;39.53;;;21.65;;
64235;SDS011;50564;47.402;9.740;2024-01-15T00:33:16;33.70;;;21.33;;
64235;SDS011;50564;47.402;9.740;2024-01-15T00:38:17;33.60;;;21.13;;
64235;SDS011;50564;47.402;9.740;2024-01-15T00:43:18;32.05;;;20.13;;
64235;SDS011;50564;47.402;9.740;2024-01-15T00:48:19;27.33;;;17.48;;
64235;SDS011;50564;47.402;9.740;2024-01-15T00:53:20;26.52;;;16.73;;
64235;SDS011;50564;47.402;9.740;2024-01-15T00:58:22;30.10;;;18.33;;
64235;SDS011;50564;47.402;9.740;2024-01-15T01:03:23;33.63;;;19.70;;
64235;SDS011;50564;47.402;9.740;2024-01-15T01:08:23;26.75;;;17.77;;
64235;SDS011;50564;47.402;9.740;2024-01-15T01:13:24;25.13;;;16.95;;
64235;SDS011;50564;47.402;9.740;2024-01-15T01:18:24;27.38;;;17.00;;
64235;SDS011;50564;47.402;9.740;2024-01-15T01:23:25;23.85;;;15.18;;
64235;SDS011;50564;47.402;9.740;2024-01-15T01:28:26;26.00;;;16.42;;
64235;SDS011;50564;47.402;9.740;2024-01-15T01:33:26;23.88;;;14.98;;
64235;SDS011;50564;47.402;9.740;2024-01-15T01:38:27;26.40;;;17.15;;
64235;SDS011;50564;47.402;9.740;2024-01-15T01:43:27;21.80;;;13.05;;
64235;SDS011;50564;47.402;9.740;2024-01-15T01:48:28;18.83;;;12.10;;
64235;SDS011;50564;47.402;9.740;2024-01-15T01:53:30;17.52;;;11.52;;
64235;SDS011;50564;47.402;9.740;2024-01-15T01:58:32;16.42;;;11.35;;
64235;SDS011;50564;47.402;9.740;2024-01-15T02:03:33;19.40;;;12.40;;
64235;SDS011;50564;47.402;9.740;2024-01-15T02:08:34;20.25;;;12.52;;
64235;SDS011;50564;47.402;9.740;2024-01-15T02:13:35;18.98;;;11.98;;
64235;SDS011;50564;47.402;9.740;2024-01-15T02:18:42;15.02;;;11.10;;
64235;SDS011;50564;47.402;9.740;2024-01-15T02:23:43;14.13;;;8.30;;
64235;SDS011;50564;47.402;9.740;2024-01-15T02:28:44;15.27;;;9.52;;
64235;SDS011;50564;47.402;9.740;2024-01-15T02:33:44;17.83;;;9.43;;
64235;SDS011;50564;47.402;9.740;2024-01-15T02:38:46;16.80;;;10.30;;
64235;SDS011;50564;47.402;9.740;2024-01-15T02:43:46;15.15;;;9.43;;
64235;SDS011;50564;47.402;9.740;2024-01-15T02:48:47;18.83;;;11.35;;
64235;SDS011;50564;47.402;9.740;2024-01-15T02:53:49;19.88;;;11.23;;
64235;SDS011;50564;47.402;9.740;2024-01-15T02:58:50;19.08;;;10.23;;
64235;SDS011;50564;47.402;9.740;2024-01-15T03:03:50;17.98;;;9.75;;
64235;SDS011;50564;47.402;9.740;2024-01-15T03:08:51;21.30;;;11.93;;
64235;SDS011;50564;47.402;9.740;2024-01-15T03:13:52;21.55;;;11.43;;
64235;SDS011;50564;47.402;9.740;2024-01-15T03:18:52;21.50;;;12.82;;
64235;SDS011;50564;47.402;9.740;2024-01-15T03:23:53;24.58;;;12.93;;
64235;SDS011;50564;47.402;9.740;2024-01-15T03:28:54;23.48;;;13.57;;
64235;SDS011;50564;47.402;9.740;2024-01-15T03:33:54;22.73;;;12.23;;
64235;SDS011;50564;47.402;9.740;2024-01-15T03:38:55;23.05;;;12.80;;
64235;SDS011;50564;47.402;9.740;2024-01-15T03:43:56;20.88;;;12.32;;
64235;SDS011;50564;47.402;9.740;2024-01-15T03:48:58;20.52;;;12.38;;
64235;SDS011;50564;47.402;9.740;2024-01-15T03:53:58;20.35;;;11.00;;
64235;SDS011;50564;47.402;9.740;2024-01-15T03:58:59;21.58;;;13.45;;
64235;SDS011;50564;47.402;9.740;2024-01-15T04:03:59;17.63;;;11.02;;
64235;SDS011;50564;47.402;9.740;2024-01-15T04:09:00;17.08;;;9.40;;
64235;SDS011;50564;47.402;9.740;2024-01-15T04:14:00;19.05;;;10.25;;
64235;SDS011;50564;47.402;9.740;2024-01-15T04:19:01;16.15;;;8.95;;
64235;SDS011;50564;47.402;9.740;2024-01-15T04:24:02;20.17;;;9.82;;
64235;SDS011;50564;47.402;9.740;2024-01-15T04:29:02;18.02;;;9.88;;
64235;SDS011;50564;47.402;9.740;2024-01-15T04:34:03;21.70;;;11.30;;
64235;SDS011;50564;47.402;9.740;2024-01-15T04:39:03;20.88;;;10.57;;
64235;SDS011;50564;47.402;9.740;2024-01-15T04:44:05;17.55;;;9.77;;
64235;SDS011;50564;47.402;9.740;2024-01-15T04:49:05;14.05;;;8.35;;
64235;SDS011;50564;47.402;9.740;2024-01-15T04:54:06;13.32;;;8.13;;
64235;SDS011;50564;47.402;9.740;2024-01-15T04:59:06;17.60;;;8.93;;
64235;SDS011;50564;47.402;9.740;2024-01-15T05:04:07;15.25;;;7.97;;
64235;SDS011;50564;47.402;9.740;2024-01-15T05:09:08;15.82;;;8.00;;
64235;SDS011;50564;47.402;9.740;2024-01-15T05:14:08;15.35;;;7.72;;
64235;SDS011;50564;47.402;9.740;2024-01-15T05:19:09;15.88;;;8.85;;
64235;SDS011;50564;47.402;9.740;2024-01-15T05:24:09;16.27;;;8.48;;
64235;SDS011;50564;47.402;9.740;2024-01-15T05:29:10;15.80;;;8.88;;
64235;SDS011;50564;47.402;9.740;2024-01-15T05:34:11;16.23;;;8.52;;
64235;SDS011;50564;47.402;9.740;2024-01-15T05:39:11;14.98;;;7.47;;
64235;SDS011;50564;47.402;9.740;2024-01-15T05:44:12;16.85;;;10.05;;
64235;SDS011;50564;47.402;9.740;2024-01-15T05:49:13;19.50;;;11.77;;
64235;SDS011;50564;47.402;9.740;2024-01-15T05:54:14;19.55;;;10.65;;
64235;SDS011;50564;47.402;9.740;2024-01-15T05:59:14;16.70;;;9.63;;
64235;SDS011;50564;47.402;9.740;2024-01-15T06:04:15;13.25;;;6.40;;
64235;SDS011;50564;47.402;9.740;2024-01-15T06:09:16;14.13;;;7.78;;
64235;SDS011;50564;47.402;9.740;2024-01-15T06:14:17;15.30;;;7.80;;
64235;SDS011;50564;47.402;9.740;2024-01-15T06:19:17;12.13;;;6.28;;
64235;SDS011;50564;47.402;9.740;2024-01-15T06:24:18;9.57;;;4.53;;
64235;SDS011;50564;47.402;9.740;2024-01-15T06:29:20;9.38;;;4.15;;
64235;SDS011;50564;47.402;9.740;2024-01-15T06:34:21;7.70;;;4.10;;
64235;SDS011;50564;47.402;9.740;2024-01-15T06:39:21;5.65;;;2.75;;
64235;SDS011;50564;47.402;9.740;2024-01-15T06:44:22;6.43;;;3.08;;
64235;SDS011;50564;47.402;9.740;2024-01-15T06:49:23;5.78;;;3.22;;
64235;SDS011;50564;47.402;9.740;2024-01-15T06:54:23;7.65;;;3.15;;
64235;SDS011;50564;47.402;9.740;2024-01-15T06:59:25;9.75;;;5.30;;
64235;SDS011;50564;47.402;9.740;2024-01-15T07:04:26;11.15;;;5.75;;
64235;SDS011;50564;47.402;9.740;2024-01-15T07:09:26;9.70;;;4.13;;
64235;SDS011;50564;47.402;9.740;2024-01-15T07:14:27;9.95;;;4.70;;
64235;SDS011;50564;47.402;9.740;2024-01-15T07:19:28;7.88;;;3.78;;
64235;SDS011;50564;47.402;9.740;2024-01-15T07:24:28;6.97;;;3.28;;
64235;SDS011;50564;47.402;9.740;2024-01-15T07:29:29;9.63;;;4.75;;
64235;SDS011;50564;47.402;9.740;2024-01-15T07:34:30;8.45;;;4.25;;
64235;SDS011;50564;47.402;9.740;2024-01-15T07:39:30;8.00;;;4.13;;
64235;SDS011;50564;47.402;9.740;2024-01-15T07:44:31;8.50;;;4.07;;
64235;SDS011;50564;47.402;9.740;2024-01-15T07:49:32;7.82;;;4.22;;
64235;SDS011;50564;47.402;9.740;2024-01-15T07:54:32;9.60;;;4.90;;
64235;SDS011;50564;47.402;9.740;2024-01-15T07:59:33;8.43;;;5.25;;
64235;SDS011;50564;47.402;9.740;2024-01-15T08:04:36;8.98;;;4.95;;
64235;SDS011;50564;47.402;9.740;2024-01-15T08:09:38;9.60;;;4.78;;
64235;SDS011;50564;47.402;9.740;2024-01-15T08:14:39;8.32;;;5.03;;
64235;SDS011;50564;47.402;9.740;2024-01-15T08:19:40;7.70;;;4.00;;
64235;SDS011;50564;47.402;9.740;2024-01-15T08:24:41;9.27;;;4.18;;
64235;SDS011;50564;47.402;9.740;2024-01-15T08:29:42;9.15;;;4.10;;
64235;SDS011;50564;47.402;9.740;2024-01-15T08:34:42;9.35;;;5.30;;
64235;SDS011;50564;47.402;9.740;2024-01-15T08:39:43;8.50;;;4.60;;
64235;SDS011;50564;47.402;9.740;2024-01-15T08:44:44;7.28;;;3.90;;
64235;SDS011;50564;47.402;9.740;2024-01-15T08:49:46;8.10;;;4.00;;
64235;SDS011;50564;47.402;9.740;2024-01-15T08:54:46;6.90;;;3.83;;
64235;SDS011;50564;47.402;9.740;2024-01-15T08:59:47;6.72;;;3.72;;
64235;SDS011;50564;47.402;9.740;2024-01-15T09:04:48;7.88;;;4.18;;
64235;SDS011;50564;47.402;9.740;2024-01-15T09:09:48;9.07;;;5.03;;
64235;SDS011;50564;47.402;9.740;2024-01-15T09:14:49;9.57;;;5.75;;
64235;SDS011;50564;47.402;9.740;2024-01-15T09:19:50;10.13;;;5.65;;
64235;SDS011;50564;47.402;9.740;2024-01-15T09:24:52;6.38;;;3.72;;
64235;SDS011;50564;47.402;9.740;2024-01-15T09:29:53;7.22;;;4.22;;
64235;SDS011;50564;47.402;9.740;2024-01-15T09:34:53;8.15;;;4.85;;
64235;SDS011;50564;47.402;9.740;2024-01-15T09:39:54;10.00;;;5.35;;
64235;SDS011;50564;47.402;9.740;2024-01-15T09:44:56;16.30;;;7.80;;
64235;SDS011;50564;47.402;9.740;2024-01-15T09:49:56;8.65;;;4.45;;
64235;SDS011;50564;47.402;9.740;2024-01-15T09:54:58;9.98;;;4.82;;
64235;SDS011;50564;47.402;9.740;2024-01-15T10:00:03;7.07;;;4.25;;
64235;SDS011;50564;47.402;9.740;2024-01-15T10:05:05;8.60;;;4.90;;
64235;SDS011;50564;47.402;9.740;2024-01-15T10:10:06;9.57;;;4.55;;
64235;SDS011;50564;47.402;9.740;2024-01-15T10:15:10;7.07;;;3.70;;
64235;SDS011;50564;47.402;9.740;2024-01-15T10:20:12;8.98;;;4.28;;
64235;SDS011;50564;47.402;9.740;2024-01-15T10:25:13;8.82;;;4.65;;
64235;SDS011;50564;47.402;9.740;2024-01-15T10:30:14;8.13;;;5.05;;
64235;SDS011;50564;47.402;9.740;2024-01-15T10:35:14;5.95;;;3.80;;
64235;SDS011;50564;47.402;9.740;2024-01-15T10:40:15;6.20;;;3.22;;
64235;SDS011;50564;47.402;9.740;2024-01-15T10:45:16;9.25;;;4.22;;
64235;SDS011;50564;47.402;9.740;2024-01-15T10:50:17;5.60;;;2.90;;
64235;SDS011;50564;47.402;9.740;2024-01-15T10:55:17;7.53;;;3.83;;
64235;SDS011;50564;47.402;9.740;2024-01-15T11:00:18;6.80;;;3.60;;
64235;SDS011;50564;47.402;9.740;2024-01-15T11:05:19;7.13;;;3.50;;
64235;SDS011;50564;47.402;9.740;2024-01-15T11:10:38;11.93;;;5.70;;
64235;SDS011;50564;47.402;9.740;2024-01-15T11:15:58;6.93;;;3.17;;
64235;SDS011;50564;47.402;9.740;2024-01-15T11:26:35;8.13;;;3.28;;
64235;SDS011;50564;47.402;9.740;2024-01-15T11:41:48;8.38;;;4.18;;
64235;SDS011;50564;47.402;9.740;2024-01-15T11:46:59;10.32;;;4.20;;
64235;SDS011;50564;47.402;9.740;2024-01-15T11:52:02;6.68;;;2.95;;
64235;SDS011;50564;47.402;9.740;2024-01-15T11:57:08;7.85;;;3.67;;
64235;SDS011;50564;47.402;9.740;2024-01-15T12:02:10;5.57;;;2.92;;
64235;SDS011;50564;47.402;9.740;2024-01-15T12:07:13;14.57;;;8.60;;
64235;SDS011;50564;47.402;9.740;2024-01-15T12:12:16;13.18;;;7.03;;
64235;SDS011;50564;47.402;9.740;2024-01-15T12:17:50;4.32;;;2.65;;
64235;SDS011;50564;47.402;9.740;2024-01-15T12:22:51;4.18;;;2.45;;
64235;SDS011;50564;47.402;9.740;2024-01-15T12:27:51;3.97;;;2.50;;
64235;SDS011;50564;47.402;9.740;2024-01-15T12:32:52;8.48;;;3.80;;
64235;SDS011;50564;47.402;9.740;2024-01-15T12:37:53;8.43;;;4.03;;
64235;SDS011;50564;47.402;9.740;2024-01-15T12:42:54;5.68;;;3.00;;
64235;SDS011;50564;47.402;9.740;2024-01-15T12:47:55;6.05;;;3.30;;
64235;SDS011;50564;47.402;9.740;2024-01-15T12:52:56;6.40;;;3.60;;
64235;SDS011;50564;47.402;9.740;2024-01-15T12:57:57;8.13;;;4.18;;
64235;SDS011;50564;47.402;9.740;2024-01-15T13:02:57;6.18;;;3.55;;
64235;SDS011;50564;47.402;9.740;2024-01-15T13:07:58;7.30;;;3.65;;
64235;SDS011;50564;47.402;9.740;2024-01-15T13:12:59;7.65;;;3.42;;
64235;SDS011;50564;47.402;9.740;2024-01-15T13:18:00;5.63;;;2.85;;
64235;SDS011;50564;47.402;9.740;2024-01-15T13:23:00;7.53;;;3.55;;
64235;SDS011;50564;47.402;9.740;2024-01-15T13:28:06;3.95;;;2.35;;
64235;SDS011;50564;47.402;9.740;2024-01-15T13:33:08;4.05;;;2.22;;
64235;SDS011;50564;47.402;9.740;2024-01-15T13:38:08;3.55;;;1.90;;
64235;SDS011;50564;47.402;9.740;2024-01-15T13:43:09;5.47;;;2.13;;
64235;SDS011;50564;47.402;9.740;2024-01-15T13:48:10;3.90;;;2.25;;
64235;SDS011;50564;47.402;9.740;2024-01-15T13:53:10;3.97;;;1.98;;
64235;SDS011;50564;47.402;9.740;2024-01-15T13:58:11;5.53;;;2.13;;
64235;SDS011;50564;47.402;9.740;2024-01-15T14:03:13;3.38;;;1.95;;
64235;SDS011;50564;47.402;9.740;2024-01-15T14:08:13;2.80;;;1.45;;
64235;SDS011;50564;47.402;9.740;2024-01-15T14:13:14;3.53;;;1.63;;
64235;SDS011;50564;47.402;9.740;2024-01-15T14:18:15;3.15;;;1.60;;
64235;SDS011;50564;47.402;9.740;2024-01-15T14:23:16;2.40;;;1.42;;
64235;SDS011;50564;47.402;9.740;2024-01-15T14:28:17;4.20;;;1.67;;
64235;SDS011;50564;47.402;9.740;2024-01-15T14:33:17;4.47;;;1.70;;
64235;SDS011;50564;47.402;9.740;2024-01-15T14:38:18;2.53;;;1.40;;
64235;SDS011;50564;47.402;9.740;2024-01-15T14:43:19;5.13;;;2.28;;
64235;SDS011;50564;47.402;9.740;2024-01-15T14:48:20;4.70;;;2.70;;
64235;SDS011;50564;47.402;9.740;2024-01-15T14:53:20;4.90;;;2.60;;
64235;SDS011;50564;47.402;9.740;2024-01-15T14:58:21;2.28;;;1.60;;
64235;SDS011;50564;47.402;9.740;2024-01-15T15:03:22;3.15;;;1.77;;
64235;SDS011;50564;47.402;9.740;2024-01-15T15:08:23;5.88;;;2.80;;
64235;SDS011;50564;47.402;9.740;2024-01-15T15:13:24;3.55;;;1.80;;
64235;SDS011;50564;47.402;9.740;2024-01-15T15:18:25;3.72;;;1.75;;
64235;SDS011;50564;47.402;9.740;2024-01-15T15:23:26;3.95;;;1.92;;
64235;SDS011;50564;47.402;9.740;2024-01-15T15:28:27;4.28;;;2.70;;
64235;SDS011;50564;47.402;9.740;2024-01-15T15:33:28;3.35;;;1.90;;
64235;SDS011;50564;47.402;9.740;2024-01-15T15:38:28;3.70;;;2.20;;
64235;SDS011;50564;47.402;9.740;2024-01-15T15:43:29;4.45;;;2.65;;
64235;SDS011;50564;47.402;9.740;2024-01-15T15:48:30;3.47;;;1.90;;
64235;SDS011;50564;47.402;9.740;2024-01-15T15:53:31;4.10;;;2.03;;
64235;SDS011;50564;47.402;9.740;2024-01-15T15:58:32;2.72;;;2.13;;
64235;SDS011;50564;47.402;9.740;2024-01-15T16:03:32;5.30;;;3.70;;
64235;SDS011;50564;47.402;9.740;2024-01-15T16:08:33;7.63;;;4.05;;
64235;SDS011;50564;47.402;9.740;2024-01-15T16:13:34;7.70;;;3.92;;
64235;SDS011;50564;47.402;9.740;2024-01-15T16:18:34;6.05;;;2.78;;
64235;SDS011;50564;47.402;9.740;2024-01-15T16:23:35;5.22;;;3.08;;
64235;SDS011;50564;47.402;9.740;2024-01-15T16:28:36;6.07;;;3.85;;
64235;SDS011;50564;47.402;9.740;2024-01-15T16:33:37;5.60;;;3.50;;
64235;SDS011;50564;47.402;9.740;2024-01-15T16:38:38;11.02;;;6.28;;
64235;SDS011;50564;47.402;9.740;2024-01-15T16:43:38;10.43;;;5.53;;
64235;SDS011;50564;47.402;9.740;2024-01-15T16:48:39;7.35;;;4.47;;
64235;SDS011;50564;47.402;9.740;2024-01-15T16:53:40;12.95;;;7.28;;
64235;SDS011;50564;47.402;9.740;2024-01-15T16:58:40;11.50;;;5.45;;
64235;SDS011;50564;47.402;9.740;2024-01-15T17:03:41;12.77;;;6.47;;
64235;SDS011;50564;47.402;9.740;2024-01-15T17:08:41;13.77;;;7.43;;
64235;SDS011;50564;47.402;9.740;2024-01-15T17:13:42;18.27;;;9.05;;
64235;SDS011;50564;47.402;9.740;2024-01-15T17:18:46;15.80;;;10.10;;
64235;SDS011;50564;47.402;9.740;2024-01-15T17:23:46;18.88;;;11.20;;
64235;SDS011;50564;47.402;9.740;2024-01-15T17:28:47;16.77;;;10.23;;
64235;SDS011;50564;47.402;9.740;2024-01-15T17:33:48;20.80;;;11.10;;
64235;SDS011;50564;47.402;9.740;2024-01-15T17:38:48;27.48;;;16.60;;
64235;SDS011;50564;47.402;9.740;2024-01-15T17:43:49;21.67;;;12.07;;
64235;SDS011;50564;47.402;9.740;2024-01-15T17:48:49;20.88;;;11.80;;
64235;SDS011;50564;47.402;9.740;2024-01-15T17:53:50;22.02;;;13.88;;
64235;SDS011;50564;47.402;9.740;2024-01-15T17:58:51;18.73;;;11.25;;
64235;SDS011;50564;47.402;9.740;2024-01-15T18:03:51;26.63;;;14.18;;
64235;SDS011;50564;47.402;9.740;2024-01-15T18:08:52;22.38;;;12.75;;
64235;SDS011;50564;47.402;9.740;2024-01-15T18:13:54;23.38;;;12.75;;
64235;SDS011;50564;47.402;9.740;2024-01-15T18:18:55;31.35;;;19.42;;
64235;SDS011;50564;47.402;9.740;2024-01-15T18:23:56;26.63;;;16.35;;
64235;SDS011;50564;47.402;9.740;2024-01-15T18:28:57;26.08;;;14.18;;
64235;SDS011;50564;47.402;9.740;2024-01-15T18:33:57;29.80;;;17.60;;
64235;SDS011;50564;47.402;9.740;2024-01-15T18:38:58;28.88;;;16.67;;
64235;SDS011;50564;47.402;9.740;2024-01-15T18:44:05;25.30;;;15.43;;
64235;SDS011;50564;47.402;9.740;2024-01-15T18:49:07;27.42;;;15.75;;
64235;SDS011;50564;47.402;9.740;2024-01-15T18:54:07;24.33;;;14.15;;
64235;SDS011;50564;47.402;9.740;2024-01-15T18:59:08;25.92;;;13.32;;
64235;SDS011;50564;47.402;9.740;2024-01-15T19:04:08;15.20;;;8.70;;
64235;SDS011;50564;47.402;9.740;2024-01-15T19:09:10;15.15;;;6.68;;
64235;SDS011;50564;47.402;9.740;2024-01-15T19:14:11;11.25;;;6.45;;
64235;SDS011;50564;47.402;9.740;2024-01-15T19:19:12;14.68;;;7.05;;
64235;SDS011;50564;47.402;9.740;2024-01-15T19:24:13;8.57;;;4.78;;
64235;SDS011;50564;47.402;9.740;2024-01-15T19:29:14;33.28;;;12.55;;
64235;SDS011;50564;47.402;9.740;2024-01-15T19:34:15;94.28;;;33.72;;
64235;SDS011;50564;47.402;9.740;2024-01-15T19:39:15;14.25;;;6.80;;
64235;SDS011;50564;47.402;9.740;2024-01-15T19:44:16;9.68;;;5.35;;
64235;SDS011;50564;47.402;9.740;2024-01-15T19:49:17;54.53;;;22.45;;
64235;SDS011;50564;47.402;9.740;2024-01-15T19:54:17;30.77;;;13.15;;
64235;SDS011;50564;47.402;9.740;2024-01-15T19:59:19;20.08;;;9.40;;
64235;SDS011;50564;47.402;9.740;2024-01-15T20:04:19;20.05;;;9.93;;
64235;SDS011;50564;47.402;9.740;2024-01-15T20:09:20;10.13;;;5.10;;
64235;SDS011;50564;47.402;9.740;2024-01-15T20:14:21;15.15;;;8.05;;
64235;SDS011;50564;47.402;9.740;2024-01-15T20:19:24;9.13;;;5.25;;
64235;SDS011;50564;47.402;9.740;2024-01-15T20:24:25;14.60;;;8.40;;
64235;SDS011;50564;47.402;9.740;2024-01-15T20:29:26;12.27;;;6.63;;
64235;SDS011;50564;47.402;9.740;2024-01-15T20:34:27;7.28;;;4.00;;
64235;SDS011;50564;47.402;9.740;2024-01-15T20:39:27;11.43;;;4.70;;
64235;SDS011;50564;47.402;9.740;2024-01-15T20:44:28;8.90;;;5.00;;
64235;SDS011;50564;47.402;9.740;2024-01-15T20:49:29;9.25;;;4.57;;
64235;SDS011;50564;47.402;9.740;2024-01-15T20:54:30;8.00;;;3.78;;
64235;SDS011;50564;47.402;9.740;2024-01-15T20:59:30;6.72;;;3.53;;
64235;SDS011;50564;47.402;9.740;2024-01-15T21:04:31;7.15;;;3.83;;
64235;SDS011;50564;47.402;9.740;2024-01-15T21:09:32;8.48;;;4.32;;
64235;SDS011;50564;47.402;9.740;2024-01-15T21:14:32;7.18;;;3.58;;
64235;SDS011;50564;47.402;9.740;2024-01-15T21:19:36;6.55;;;3.58;;
64235;SDS011;50564;47.402;9.740;2024-01-15T21:24:36;8.25;;;3.60;;
64235;SDS011;50564;47.402;9.740;2024-01-15T21:29:37;9.38;;;4.57;;
64235;SDS011;50564;47.402;9.740;2024-01-15T21:34:38;7.78;;;4.25;;
64235;SDS011;50564;47.402;9.740;2024-01-15T21:39:38;6.97;;;3.58;;
64235;SDS011;50564;47.402;9.740;2024-01-15T21:44:39;8.05;;;3.80;;
64235;SDS011;50564;47.402;9.740;2024-01-15T21:49:41;7.57;;;3.70;;
64235;SDS011;50564;47.402;9.740;2024-01-15T21:54:41;17.45;;;6.68;;
64235;SDS011;50564;47.402;9.740;2024-01-15T21:59:42;10.25;;;5.15;;
64235;SDS011;50564;47.402;9.740;2024-01-15T22:04:42;46.67;;;15.63;;
64235;SDS011;50564;47.402;9.740;2024-01-15T22:09:43;23.58;;;7.60;;
64235;SDS011;50564;47.402;9.740;2024-01-15T22:14:44;39.75;;;12.20;;
64235;SDS011;50564;47.402;9.740;2024-01-15T22:19:45;17.20;;;6.85;;
64235;SDS011;50564;47.402;9.740;2024-01-15T22:24:45;24.17;;;9.35;;
64235;SDS011;50564;47.402;9.740;2024-01-15T22:29:46;29.05;;;11.43;;
64235;SDS011;50564;47.402;9.740;2024-01-15T22:34:50;11.85;;;6.35;;
64235;SDS011;50564;47.402;9.740;2024-01-15T22:39:51;31.98;;;11.80;;
64235;SDS011;50564;47.402;9.740;2024-01-15T22:44:52;29.23;;;12.68;;
64235;SDS011;50564;47.402;9.740;2024-01-15T22:49:52;21.98;;;9.65;;
64235;SDS011;50564;47.402;9.740;2024-01-15T22:54:53;37.50;;;13.98;;
64235;SDS011;50564;47.402;9.740;2024-01-15T22:59:54;51.03;;;20.15;;
64235;SDS011;50564;47.402;9.740;2024-01-15T23:04:55;13.40;;;6.82;;
64235;SDS011;50564;47.402;9.740;2024-01-15T23:09:55;29.35;;;13.52;;
64235;SDS011;50564;47.402;9.740;2024-01-15T23:14:56;9.82;;;4.95;;
64235;SDS011;50564;47.402;9.740;2024-01-15T23:19:57;11.90;;;5.63;;
64235;SDS011;50564;47.402;9.740;2024-01-15T23:24:58;18.25;;;9.98;;
64235;SDS011;50564;47.402;9.740;2024-01-15T23:29:58;10.15;;;5.15;;
64235;SDS011;50564;47.402;9.740;2024-01-15T23:34:59;12.63;;;7.93;;
64235;SDS011;50564;47.402;9.740;2024-01-15T23:40:01;10.27;;;5.00;;
64235;SDS011;50564;47.402;9.740;2024-01-15T23:45:01;9.63;;;5.18;;
64235;SDS011;50564;47.402;9.740;2024-01-15T23:50:03;10.07;;;5.32;;
64235;SDS011;50564;47.402;9.740;2024-01-15T23:55:04;9.23;;;5.18;;
